sensor_id;sensor_type;location;lat;lon;timestamp;P1;durP1;ratioP1;P2;durP2;ratioP2
28766;SDS011;15921;52.034;20.650;2023-06-14T00:02:02;17.60;;;12.18;;
28766;SDS011;15921;52.034;20.650;2023-06-14T00:04:28;16.25;;;11.43;;
28766;SDS011;15921;52.034;20.650;2023-06-14T00:06:55;20.45;;;13.25;;
28766;SDS011;15921;52.034;20.650;2023-06-14T00:09:22;20.95;;;12.18;;
28766;SDS011;15921;52.034;20.650;2023-06-14T00:11:48;19.48;;;13.50;;
28766;SDS011;15921;52.034;20.650;2023-06-14T00:14:14;18.50;;;11.75;;
28766;SDS011;15921;52.034;20.650;2023-06-14T00:16:40;19.30;;;12.63;;
28766;SDS011;15921;52.034;20.650;2023-06-14T00:19:07;22.70;;;11.18;;
28766;SDS011;15921;52.034;20.650;2023-06-14T00:21:35;21.25;;;11.80;;
28766;SDS011;15921;52.034;20.650;2023-06-14T00:24:01;21.48;;;12.52;;
28766;SDS011;15921;52.034;20.650;2023-06-14T00:26:27;17.02;;;11.65;;
28766;SDS011;15921;52.034;20.650;2023-06-14T00:28:53;14.52;;;10.70;;
28766;SDS011;15921;52.034;20.650;2023-06-14T00:31:20;17.77;;;12.70;;
28766;SDS011;15921;52.034;20.650;2023-06-14T00:33:45;16.98;;;11.07;;
28766;SDS011;15921;52.034;20.650;2023-06-14T00:36:11;18.77;;;12.40;;
28766;SDS011;15921;52.034;20.650;2023-06-14T00:38:37;22.63;;;12.40;;
28766;SDS011;15921;52.034;20.650;2023-06-14T00:41:03;22.48;;;12.63;;
28766;SDS011;15921;52.034;20.650;2023-06-14T00:43:29;21.23;;;13.10;;
28766;SDS011;15921;52.034;20.650;2023-06-14T00:45:54;19.27;;;12.90;;
28766;SDS011;15921;52.034;20.650;2023-06-14T00:48:20;21.30;;;12.57;;
28766;SDS011;15921;52.034;20.650;2023-06-14T00:50:47;17.20;;;12.32;;
28766;SDS011;15921;52.034;20.650;2023-06-14T00:53:14;19.67;;;12.98;;
28766;SDS011;15921;52.034;20.650;2023-06-14T00:55:42;20.73;;;13.68;;
28766;SDS011;15921;52.034;20.650;2023-06-14T00:58:08;19.38;;;12.70;;
28766;SDS011;15921;52.034;20.650;2023-06-14T01:00:34;19.38;;;13.05;;
28766;SDS011;15921;52.034;20.650;2023-06-14T01:03:00;21.30;;;13.55;;
28766;SDS011;15921;52.034;20.650;2023-06-14T01:05:27;28.10;;;14.20;;
28766;SDS011;15921;52.034;20.650;2023-06-14T01:10:49;18.08;;;12.60;;
28766;SDS011;15921;52.034;20.650;2023-06-14T01:13:37;24.20;;;13.73;;
28766;SDS011;15921;52.034;20.650;2023-06-14T01:16:05;22.52;;;14.73;;
28766;SDS011;15921;52.034;20.650;2023-06-14T01:18:33;24.80;;;14.27;;
28766;SDS011;15921;52.034;20.650;2023-06-14T01:20:59;22.70;;;15.10;;
28766;SDS011;15921;52.034;20.650;2023-06-14T01:23:30;21.67;;;15.10;;
28766;SDS011;15921;52.034;20.650;2023-06-14T01:26:00;31.38;;;15.35;;
28766;SDS011;15921;52.034;20.650;2023-06-14T01:28:28;28.17;;;15.48;;
28766;SDS011;15921;52.034;20.650;2023-06-14T01:30:57;20.65;;;14.90;;
28766;SDS011;15921;52.034;20.650;2023-06-14T01:33:28;26.08;;;16.33;;
28766;SDS011;15921;52.034;20.650;2023-06-14T01:35:55;22.60;;;15.68;;
28766;SDS011;15921;52.034;20.650;2023-06-14T01:38:22;25.08;;;15.13;;
28766;SDS011;15921;52.034;20.650;2023-06-14T01:40:51;23.15;;;16.45;;
28766;SDS011;15921;52.034;20.650;2023-06-14T01:43:18;30.05;;;16.08;;
28766;SDS011;15921;52.034;20.650;2023-06-14T01:45:46;24.88;;;15.80;;
28766;SDS011;15921;52.034;20.650;2023-06-14T01:48:14;27.05;;;17.27;;
28766;SDS011;15921;52.034;20.650;2023-06-14T01:50:40;26.67;;;16.75;;
28766;SDS011;15921;52.034;20.650;2023-06-14T01:53:09;25.92;;;18.35;;
28766;SDS011;15921;52.034;20.650;2023-06-14T01:55:35;30.40;;;18.20;;
28766;SDS011;15921;52.034;20.650;2023-06-14T01:58:05;23.63;;;16.38;;
28766;SDS011;15921;52.034;20.650;2023-06-14T02:00:31;28.63;;;17.45;;
28766;SDS011;15921;52.034;20.650;2023-06-14T02:02:57;26.52;;;16.48;;
28766;SDS011;15921;52.034;20.650;2023-06-14T02:05:22;28.83;;;18.00;;
28766;SDS011;15921;52.034;20.650;2023-06-14T02:07:49;33.00;;;18.23;;
28766;SDS011;15921;52.034;20.650;2023-06-14T02:10:15;24.60;;;16.73;;
28766;SDS011;15921;52.034;20.650;2023-06-14T02:12:42;24.15;;;16.05;;
28766;SDS011;15921;52.034;20.650;2023-06-14T02:15:08;28.75;;;16.85;;
28766;SDS011;15921;52.034;20.650;2023-06-14T02:17:45;28.35;;;17.52;;
28766;SDS011;15921;52.034;20.650;2023-06-14T02:20:12;26.88;;;17.05;;
28766;SDS011;15921;52.034;20.650;2023-06-14T02:22:38;26.00;;;16.63;;
28766;SDS011;15921;52.034;20.650;2023-06-14T02:25:04;23.58;;;16.30;;
28766;SDS011;15921;52.034;20.650;2023-06-14T02:27:31;28.20;;;17.67;;
28766;SDS011;15921;52.034;20.650;2023-06-14T02:29:57;25.17;;;17.92;;
28766;SDS011;15921;52.034;20.650;2023-06-14T02:32:22;22.73;;;16.05;;
28766;SDS011;15921;52.034;20.650;2023-06-14T02:34:48;29.98;;;17.20;;
28766;SDS011;15921;52.034;20.650;2023-06-14T02:37:14;29.98;;;16.42;;
28766;SDS011;15921;52.034;20.650;2023-06-14T02:39:43;26.80;;;17.58;;
28766;SDS011;15921;52.034;20.650;2023-06-14T02:42:09;27.05;;;17.17;;
28766;SDS011;15921;52.034;20.650;2023-06-14T02:44:35;34.70;;;17.50;;
28766;SDS011;15921;52.034;20.650;2023-06-14T02:47:01;30.15;;;16.23;;
28766;SDS011;15921;52.034;20.650;2023-06-14T02:49:28;29.88;;;16.17;;
28766;SDS011;15921;52.034;20.650;2023-06-14T02:51:54;21.90;;;15.32;;
28766;SDS011;15921;52.034;20.650;2023-06-14T02:54:20;25.40;;;16.80;;
28766;SDS011;15921;52.034;20.650;2023-06-14T02:56:46;23.35;;;15.43;;
28766;SDS011;15921;52.034;20.650;2023-06-14T02:59:11;21.45;;;15.27;;
28766;SDS011;15921;52.034;20.650;2023-06-14T03:01:39;22.42;;;16.00;;
28766;SDS011;15921;52.034;20.650;2023-06-14T03:04:06;30.10;;;16.05;;
28766;SDS011;15921;52.034;20.650;2023-06-14T03:06:33;20.42;;;14.93;;
28766;SDS011;15921;52.034;20.650;2023-06-14T03:09:02;32.55;;;15.25;;
28766;SDS011;15921;52.034;20.650;2023-06-14T03:11:34;26.50;;;15.93;;
28766;SDS011;15921;52.034;20.650;2023-06-14T03:14:00;22.00;;;14.88;;
28766;SDS011;15921;52.034;20.650;2023-06-14T03:16:28;24.90;;;14.18;;
28766;SDS011;15921;52.034;20.650;2023-06-14T03:18:54;24.05;;;13.82;;
28766;SDS011;15921;52.034;20.650;2023-06-14T03:21:20;18.20;;;12.63;;
28766;SDS011;15921;52.034;20.650;2023-06-14T03:23:47;18.15;;;12.95;;
28766;SDS011;15921;52.034;20.650;2023-06-14T03:26:13;20.73;;;14.05;;
28766;SDS011;15921;52.034;20.650;2023-06-14T03:28:43;22.10;;;12.80;;
28766;SDS011;15921;52.034;20.650;2023-06-14T03:31:10;28.88;;;15.35;;
28766;SDS011;15921;52.034;20.650;2023-06-14T03:33:36;22.25;;;13.30;;
28766;SDS011;15921;52.034;20.650;2023-06-14T03:36:02;21.25;;;15.38;;
28766;SDS011;15921;52.034;20.650;2023-06-14T03:38:28;22.08;;;13.60;;
28766;SDS011;15921;52.034;20.650;2023-06-14T03:40:54;19.98;;;13.13;;
28766;SDS011;15921;52.034;20.650;2023-06-14T03:43:19;21.83;;;14.68;;
28766;SDS011;15921;52.034;20.650;2023-06-14T03:45:45;19.48;;;12.27;;
28766;SDS011;15921;52.034;20.650;2023-06-14T03:48:11;16.90;;;11.38;;
28766;SDS011;15921;52.034;20.650;2023-06-14T03:50:36;17.85;;;11.70;;
28766;SDS011;15921;52.034;20.650;2023-06-14T03:53:03;17.33;;;12.00;;
28766;SDS011;15921;52.034;20.650;2023-06-14T03:55:29;17.58;;;11.77;;
28766;SDS011;15921;52.034;20.650;2023-06-14T03:57:58;20.73;;;12.30;;
28766;SDS011;15921;52.034;20.650;2023-06-14T04:00:24;17.75;;;11.15;;
28766;SDS011;15921;52.034;20.650;2023-06-14T04:02:50;19.02;;;10.95;;
28766;SDS011;15921;52.034;20.650;2023-06-14T04:05:15;17.35;;;12.25;;
28766;SDS011;15921;52.034;20.650;2023-06-14T04:07:44;19.05;;;11.80;;
28766;SDS011;15921;52.034;20.650;2023-06-14T04:10:10;21.50;;;11.02;;
28766;SDS011;15921;52.034;20.650;2023-06-14T04:12:38;15.30;;;10.38;;
28766;SDS011;15921;52.034;20.650;2023-06-14T04:15:04;16.75;;;11.18;;
28766;SDS011;15921;52.034;20.650;2023-06-14T04:17:33;16.50;;;11.20;;
28766;SDS011;15921;52.034;20.650;2023-06-14T04:20:00;15.27;;;11.40;;
28766;SDS011;15921;52.034;20.650;2023-06-14T04:22:26;15.20;;;10.82;;
28766;SDS011;15921;52.034;20.650;2023-06-14T04:24:55;15.85;;;10.95;;
28766;SDS011;15921;52.034;20.650;2023-06-14T04:27:21;14.13;;;11.40;;
28766;SDS011;15921;52.034;20.650;2023-06-14T04:29:54;16.95;;;10.63;;
28766;SDS011;15921;52.034;20.650;2023-06-14T04:32:23;14.90;;;9.43;;
28766;SDS011;15921;52.034;20.650;2023-06-14T04:34:52;13.20;;;9.77;;
28766;SDS011;15921;52.034;20.650;2023-06-14T04:37:23;13.65;;;9.73;;
28766;SDS011;15921;52.034;20.650;2023-06-14T04:39:49;15.30;;;9.73;;
28766;SDS011;15921;52.034;20.650;2023-06-14T04:42:15;14.55;;;10.30;;
28766;SDS011;15921;52.034;20.650;2023-06-14T04:44:42;18.63;;;10.38;;
28766;SDS011;15921;52.034;20.650;2023-06-14T04:47:08;14.20;;;9.80;;
28766;SDS011;15921;52.034;20.650;2023-06-14T04:49:34;13.82;;;9.77;;
28766;SDS011;15921;52.034;20.650;2023-06-14T04:52:00;13.57;;;8.88;;
28766;SDS011;15921;52.034;20.650;2023-06-14T04:54:26;13.05;;;9.05;;
28766;SDS011;15921;52.034;20.650;2023-06-14T04:56:52;16.40;;;8.30;;
28766;SDS011;15921;52.034;20.650;2023-06-14T04:59:20;14.80;;;9.82;;
28766;SDS011;15921;52.034;20.650;2023-06-14T05:01:48;10.45;;;8.38;;
28766;SDS011;15921;52.034;20.650;2023-06-14T05:04:15;18.95;;;9.80;;
28766;SDS011;15921;52.034;20.650;2023-06-14T05:06:41;16.08;;;9.90;;
28766;SDS011;15921;52.034;20.650;2023-06-14T05:09:10;16.45;;;8.75;;
28766;SDS011;15921;52.034;20.650;2023-06-14T05:11:36;14.55;;;8.18;;
28766;SDS011;15921;52.034;20.650;2023-06-14T05:14:01;16.45;;;9.55;;
28766;SDS011;15921;52.034;20.650;2023-06-14T05:16:27;12.95;;;8.13;;
28766;SDS011;15921;52.034;20.650;2023-06-14T05:18:54;13.30;;;7.70;;
28766;SDS011;15921;52.034;20.650;2023-06-14T05:21:20;14.63;;;9.18;;
28766;SDS011;15921;52.034;20.650;2023-06-14T05:23:46;16.42;;;8.75;;
28766;SDS011;15921;52.034;20.650;2023-06-14T05:26:12;20.63;;;8.32;;
28766;SDS011;15921;52.034;20.650;2023-06-14T05:28:38;14.00;;;8.07;;
28766;SDS011;15921;52.034;20.650;2023-06-14T05:31:04;14.10;;;8.27;;
28766;SDS011;15921;52.034;20.650;2023-06-14T05:33:29;11.43;;;7.85;;
28766;SDS011;15921;52.034;20.650;2023-06-14T05:35:55;12.35;;;8.00;;
28766;SDS011;15921;52.034;20.650;2023-06-14T05:38:21;16.42;;;8.68;;
28766;SDS011;15921;52.034;20.650;2023-06-14T05:40:47;16.05;;;7.65;;
28766;SDS011;15921;52.034;20.650;2023-06-14T05:43:12;16.33;;;8.15;;
28766;SDS011;15921;52.034;20.650;2023-06-14T05:45:38;17.40;;;8.90;;
28766;SDS011;15921;52.034;20.650;2023-06-14T05:48:05;12.18;;;8.88;;
28766;SDS011;15921;52.034;20.650;2023-06-14T05:50:30;10.80;;;7.97;;
28766;SDS011;15921;52.034;20.650;2023-06-14T05:52:56;12.13;;;7.95;;
28766;SDS011;15921;52.034;20.650;2023-06-14T05:55:22;12.68;;;7.53;;
28766;SDS011;15921;52.034;20.650;2023-06-14T05:57:48;16.80;;;7.53;;
28766;SDS011;15921;52.034;20.650;2023-06-14T06:00:14;13.68;;;7.18;;
28766;SDS011;15921;52.034;20.650;2023-06-14T06:02:43;12.23;;;6.85;;
28766;SDS011;15921;52.034;20.650;2023-06-14T06:05:10;13.43;;;8.02;;
28766;SDS011;15921;52.034;20.650;2023-06-14T06:07:37;14.20;;;8.18;;
28766;SDS011;15921;52.034;20.650;2023-06-14T06:10:03;15.20;;;8.05;;
28766;SDS011;15921;52.034;20.650;2023-06-14T06:12:30;10.80;;;7.35;;
28766;SDS011;15921;52.034;20.650;2023-06-14T06:14:56;15.07;;;8.82;;
28766;SDS011;15921;52.034;20.650;2023-06-14T06:17:22;12.45;;;8.00;;
28766;SDS011;15921;52.034;20.650;2023-06-14T06:19:47;18.02;;;7.80;;
28766;SDS011;15921;52.034;20.650;2023-06-14T06:22:13;13.55;;;7.55;;
28766;SDS011;15921;52.034;20.650;2023-06-14T06:24:39;11.05;;;7.28;;
28766;SDS011;15921;52.034;20.650;2023-06-14T06:27:04;16.92;;;7.20;;
28766;SDS011;15921;52.034;20.650;2023-06-14T06:29:33;12.13;;;7.15;;
28766;SDS011;15921;52.034;20.650;2023-06-14T06:31:58;12.45;;;7.20;;
28766;SDS011;15921;52.034;20.650;2023-06-14T06:34:24;14.00;;;7.00;;
28766;SDS011;15921;52.034;20.650;2023-06-14T06:36:50;13.13;;;6.38;;
28766;SDS011;15921;52.034;20.650;2023-06-14T06:39:16;10.65;;;6.57;;
28766;SDS011;15921;52.034;20.650;2023-06-14T06:41:42;11.77;;;6.18;;
28766;SDS011;15921;52.034;20.650;2023-06-14T06:44:07;10.45;;;5.78;;
28766;SDS011;15921;52.034;20.650;2023-06-14T06:46:35;9.95;;;5.78;;
28766;SDS011;15921;52.034;20.650;2023-06-14T06:49:06;9.98;;;5.95;;
28766;SDS011;15921;52.034;20.650;2023-06-14T06:51:32;13.02;;;5.47;;
28766;SDS011;15921;52.034;20.650;2023-06-14T06:53:59;8.20;;;5.28;;
28766;SDS011;15921;52.034;20.650;2023-06-14T06:56:25;11.57;;;5.72;;
28766;SDS011;15921;52.034;20.650;2023-06-14T06:58:50;10.45;;;5.10;;
28766;SDS011;15921;52.034;20.650;2023-06-14T07:01:16;11.52;;;5.30;;
28766;SDS011;15921;52.034;20.650;2023-06-14T07:03:43;8.43;;;5.05;;
28766;SDS011;15921;52.034;20.650;2023-06-14T07:06:09;9.52;;;5.28;;
28766;SDS011;15921;52.034;20.650;2023-06-14T07:08:35;12.57;;;5.20;;
28766;SDS011;15921;52.034;20.650;2023-06-14T07:11:03;8.52;;;5.03;;
28766;SDS011;15921;52.034;20.650;2023-06-14T07:13:30;10.95;;;5.43;;
28766;SDS011;15921;52.034;20.650;2023-06-14T07:15:57;7.80;;;5.05;;
28766;SDS011;15921;52.034;20.650;2023-06-14T07:18:24;7.25;;;5.43;;
28766;SDS011;15921;52.034;20.650;2023-06-14T07:20:50;12.50;;;5.85;;
28766;SDS011;15921;52.034;20.650;2023-06-14T07:23:15;10.55;;;5.63;;
28766;SDS011;15921;52.034;20.650;2023-06-14T07:25:43;8.35;;;4.70;;
28766;SDS011;15921;52.034;20.650;2023-06-14T07:28:09;7.15;;;4.95;;
28766;SDS011;15921;52.034;20.650;2023-06-14T07:30:35;11.32;;;5.45;;
28766;SDS011;15921;52.034;20.650;2023-06-14T07:33:00;8.73;;;4.53;;
28766;SDS011;15921;52.034;20.650;2023-06-14T07:35:26;7.22;;;4.20;;
28766;SDS011;15921;52.034;20.650;2023-06-14T07:37:52;5.47;;;3.95;;
28766;SDS011;15921;52.034;20.650;2023-06-14T07:40:18;11.63;;;5.18;;
28766;SDS011;15921;52.034;20.650;2023-06-14T07:42:43;7.43;;;4.25;;
28766;SDS011;15921;52.034;20.650;2023-06-14T07:45:09;9.20;;;5.18;;
28766;SDS011;15921;52.034;20.650;2023-06-14T07:47:37;15.15;;;5.45;;
28766;SDS011;15921;52.034;20.650;2023-06-14T07:50:02;12.45;;;4.85;;
28766;SDS011;15921;52.034;20.650;2023-06-14T07:52:28;9.77;;;4.82;;
28766;SDS011;15921;52.034;20.650;2023-06-14T07:54:54;5.80;;;4.00;;
28766;SDS011;15921;52.034;20.650;2023-06-14T07:57:20;7.72;;;4.85;;
28766;SDS011;15921;52.034;20.650;2023-06-14T07:59:46;12.75;;;4.70;;
28766;SDS011;15921;52.034;20.650;2023-06-14T08:02:11;7.55;;;4.53;;
28766;SDS011;15921;52.034;20.650;2023-06-14T08:04:37;12.23;;;4.70;;
28766;SDS011;15921;52.034;20.650;2023-06-14T08:07:03;8.70;;;4.10;;
28766;SDS011;15921;52.034;20.650;2023-06-14T08:09:29;6.45;;;3.90;;
28766;SDS011;15921;52.034;20.650;2023-06-14T08:11:55;7.03;;;4.00;;
28766;SDS011;15921;52.034;20.650;2023-06-14T08:14:21;5.05;;;3.40;;
28766;SDS011;15921;52.034;20.650;2023-06-14T08:16:47;6.15;;;3.53;;
28766;SDS011;15921;52.034;20.650;2023-06-14T08:19:13;7.38;;;3.50;;
28766;SDS011;15921;52.034;20.650;2023-06-14T08:21:41;6.68;;;3.20;;
28766;SDS011;15921;52.034;20.650;2023-06-14T08:24:08;5.38;;;3.22;;
28766;SDS011;15921;52.034;20.650;2023-06-14T08:26:37;5.75;;;3.28;;
28766;SDS011;15921;52.034;20.650;2023-06-14T08:29:04;5.20;;;3.00;;
28766;SDS011;15921;52.034;20.650;2023-06-14T08:31:32;7.57;;;3.38;;
28766;SDS011;15921;52.034;20.650;2023-06-14T08:33:58;4.63;;;2.47;;
28766;SDS011;15921;52.034;20.650;2023-06-14T08:36:24;14.88;;;3.80;;
28766;SDS011;15921;52.034;20.650;2023-06-14T08:38:50;6.38;;;2.90;;
28766;SDS011;15921;52.034;20.650;2023-06-14T08:41:20;9.55;;;3.63;;
28766;SDS011;15921;52.034;20.650;2023-06-14T08:43:48;10.32;;;3.28;;
28766;SDS011;15921;52.034;20.650;2023-06-14T08:46:14;4.88;;;3.40;;
28766;SDS011;15921;52.034;20.650;2023-06-14T08:48:49;4.05;;;3.10;;
28766;SDS011;15921;52.034;20.650;2023-06-14T08:51:19;7.47;;;3.60;;
28766;SDS011;15921;52.034;20.650;2023-06-14T08:53:48;8.70;;;4.13;;
28766;SDS011;15921;52.034;20.650;2023-06-14T08:56:24;7.35;;;3.20;;
28766;SDS011;15921;52.034;20.650;2023-06-14T08:58:52;13.75;;;3.28;;
28766;SDS011;15921;52.034;20.650;2023-06-14T09:01:19;4.63;;;3.03;;
28766;SDS011;15921;52.034;20.650;2023-06-14T09:03:46;7.28;;;3.45;;
28766;SDS011;15921;52.034;20.650;2023-06-14T09:06:13;9.10;;;3.13;;
28766;SDS011;15921;52.034;20.650;2023-06-14T09:08:43;10.52;;;3.30;;
28766;SDS011;15921;52.034;20.650;2023-06-14T09:11:13;9.40;;;3.10;;
28766;SDS011;15921;52.034;20.650;2023-06-14T09:13:39;9.98;;;3.35;;
28766;SDS011;15921;52.034;20.650;2023-06-14T09:16:06;10.18;;;3.33;;
28766;SDS011;15921;52.034;20.650;2023-06-14T09:18:43;5.75;;;3.47;;
28766;SDS011;15921;52.034;20.650;2023-06-14T09:21:10;4.78;;;3.30;;
28766;SDS011;15921;52.034;20.650;2023-06-14T09:23:37;4.95;;;3.50;;
28766;SDS011;15921;52.034;20.650;2023-06-14T09:26:10;8.52;;;3.40;;
28766;SDS011;15921;52.034;20.650;2023-06-14T09:28:40;10.23;;;3.45;;
28766;SDS011;15921;52.034;20.650;2023-06-14T09:31:08;7.30;;;3.03;;
28766;SDS011;15921;52.034;20.650;2023-06-14T09:33:35;6.05;;;2.83;;
28766;SDS011;15921;52.034;20.650;2023-06-14T09:36:00;4.13;;;3.00;;
28766;SDS011;15921;52.034;20.650;2023-06-14T09:38:26;5.47;;;3.25;;
28766;SDS011;15921;52.034;20.650;2023-06-14T09:40:52;8.63;;;2.92;;
28766;SDS011;15921;52.034;20.650;2023-06-14T09:43:18;18.92;;;3.55;;
28766;SDS011;15921;52.034;20.650;2023-06-14T09:45:46;8.57;;;3.33;;
28766;SDS011;15921;52.034;20.650;2023-06-14T09:48:13;6.45;;;3.50;;
28766;SDS011;15921;52.034;20.650;2023-06-14T09:50:44;8.25;;;3.58;;
28766;SDS011;15921;52.034;20.650;2023-06-14T09:53:11;6.47;;;3.55;;
28766;SDS011;15921;52.034;20.650;2023-06-14T09:55:41;5.25;;;3.40;;
28766;SDS011;15921;52.034;20.650;2023-06-14T09:58:07;6.88;;;3.83;;
28766;SDS011;15921;52.034;20.650;2023-06-14T10:00:35;5.72;;;3.67;;
28766;SDS011;15921;52.034;20.650;2023-06-14T10:03:44;6.45;;;3.67;;
28766;SDS011;15921;52.034;20.650;2023-06-14T10:05:53;6.28;;;4.00;;
28766;SDS011;15921;52.034;20.650;2023-06-14T10:08:27;8.98;;;4.22;;
28766;SDS011;15921;52.034;20.650;2023-06-14T10:10:55;8.57;;;3.42;;
28766;SDS011;15921;52.034;20.650;2023-06-14T10:13:22;8.20;;;3.83;;
28766;SDS011;15921;52.034;20.650;2023-06-14T10:23:19;7.22;;;3.10;;
28766;SDS011;15921;52.034;20.650;2023-06-14T10:25:54;11.63;;;3.83;;
28766;SDS011;15921;52.034;20.650;2023-06-14T10:28:24;9.77;;;3.30;;
28766;SDS011;15921;52.034;20.650;2023-06-14T10:31:13;7.72;;;3.38;;
28766;SDS011;15921;52.034;20.650;2023-06-14T10:36:29;7.60;;;3.88;;
28766;SDS011;15921;52.034;20.650;2023-06-14T10:38:56;5.82;;;3.30;;
28766;SDS011;15921;52.034;20.650;2023-06-14T10:41:23;9.43;;;3.88;;
28766;SDS011;15921;52.034;20.650;2023-06-14T10:43:52;7.18;;;4.05;;
28766;SDS011;15921;52.034;20.650;2023-06-14T10:46:35;14.15;;;3.95;;
28766;SDS011;15921;52.034;20.650;2023-06-14T10:49:01;7.10;;;4.25;;
28766;SDS011;15921;52.034;20.650;2023-06-14T10:51:29;11.02;;;4.07;;
28766;SDS011;15921;52.034;20.650;2023-06-14T10:54:11;12.43;;;4.78;;
28766;SDS011;15921;52.034;20.650;2023-06-14T10:56:38;9.45;;;4.47;;
28766;SDS011;15921;52.034;20.650;2023-06-14T10:59:15;6.32;;;4.60;;
28766;SDS011;15921;52.034;20.650;2023-06-14T11:04:48;7.78;;;4.05;;
28766;SDS011;15921;52.034;20.650;2023-06-14T11:07:38;14.52;;;5.15;;
28766;SDS011;15921;52.034;20.650;2023-06-14T11:12:47;11.93;;;5.55;;
28766;SDS011;15921;52.034;20.650;2023-06-14T11:15:14;9.80;;;4.72;;
28766;SDS011;15921;52.034;20.650;2023-06-14T11:17:41;8.00;;;4.90;;
28766;SDS011;15921;52.034;20.650;2023-06-14T11:20:16;17.85;;;5.85;;
28766;SDS011;15921;52.034;20.650;2023-06-14T11:22:42;12.63;;;6.03;;
28766;SDS011;15921;52.034;20.650;2023-06-14T11:25:09;11.00;;;4.78;;
28766;SDS011;15921;52.034;20.650;2023-06-14T11:27:35;11.98;;;4.70;;
28766;SDS011;15921;52.034;20.650;2023-06-14T11:30:01;12.50;;;5.05;;
28766;SDS011;15921;52.034;20.650;2023-06-14T11:32:27;11.63;;;5.10;;
28766;SDS011;15921;52.034;20.650;2023-06-14T11:34:53;12.63;;;4.82;;
28766;SDS011;15921;52.034;20.650;2023-06-14T11:37:20;7.97;;;5.05;;
28766;SDS011;15921;52.034;20.650;2023-06-14T11:39:46;10.68;;;5.00;;
28766;SDS011;15921;52.034;20.650;2023-06-14T11:42:15;12.95;;;4.57;;
28766;SDS011;15921;52.034;20.650;2023-06-14T11:44:41;7.95;;;4.55;;
28766;SDS011;15921;52.034;20.650;2023-06-14T11:47:06;8.30;;;3.80;;
28766;SDS011;15921;52.034;20.650;2023-06-14T11:49:35;8.75;;;3.92;;
28766;SDS011;15921;52.034;20.650;2023-06-14T11:52:01;7.53;;;4.38;;
28766;SDS011;15921;52.034;20.650;2023-06-14T11:54:27;9.15;;;4.65;;
28766;SDS011;15921;52.034;20.650;2023-06-14T11:56:53;11.38;;;4.45;;
28766;SDS011;15921;52.034;20.650;2023-06-14T11:59:20;12.82;;;5.07;;
28766;SDS011;15921;52.034;20.650;2023-06-14T12:01:47;8.30;;;4.88;;
28766;SDS011;15921;52.034;20.650;2023-06-14T12:04:13;10.45;;;4.18;;
28766;SDS011;15921;52.034;20.650;2023-06-14T12:06:38;8.52;;;4.57;;
28766;SDS011;15921;52.034;20.650;2023-06-14T12:09:05;7.00;;;4.60;;
28766;SDS011;15921;52.034;20.650;2023-06-14T12:11:41;8.95;;;5.15;;
28766;SDS011;15921;52.034;20.650;2023-06-14T12:14:08;10.02;;;4.35;;
28766;SDS011;15921;52.034;20.650;2023-06-14T12:16:34;7.30;;;5.22;;
28766;SDS011;15921;52.034;20.650;2023-06-14T12:19:15;10.27;;;4.85;;
28766;SDS011;15921;52.034;20.650;2023-06-14T12:21:42;12.45;;;4.72;;
28766;SDS011;15921;52.034;20.650;2023-06-14T12:24:13;6.28;;;4.22;;
28766;SDS011;15921;52.034;20.650;2023-06-14T12:26:39;10.05;;;4.40;;
28766;SDS011;15921;52.034;20.650;2023-06-14T12:29:08;10.52;;;4.47;;
28766;SDS011;15921;52.034;20.650;2023-06-14T12:31:34;10.20;;;4.53;;
28766;SDS011;15921;52.034;20.650;2023-06-14T12:33:59;12.52;;;4.15;;
28766;SDS011;15921;52.034;20.650;2023-06-14T12:36:25;6.97;;;4.45;;
28766;SDS011;15921;52.034;20.650;2023-06-14T12:38:51;8.82;;;4.45;;
28766;SDS011;15921;52.034;20.650;2023-06-14T12:41:19;8.90;;;3.83;;
28766;SDS011;15921;52.034;20.650;2023-06-14T12:43:47;8.52;;;4.07;;
28766;SDS011;15921;52.034;20.650;2023-06-14T12:46:13;7.15;;;3.83;;
28766;SDS011;15921;52.034;20.650;2023-06-14T12:48:39;11.45;;;3.85;;
28766;SDS011;15921;52.034;20.650;2023-06-14T12:51:04;8.02;;;3.20;;
28766;SDS011;15921;52.034;20.650;2023-06-14T12:53:30;6.90;;;4.28;;
28766;SDS011;15921;52.034;20.650;2023-06-14T12:55:56;4.85;;;3.00;;
28766;SDS011;15921;52.034;20.650;2023-06-14T12:58:21;6.65;;;3.42;;
28766;SDS011;15921;52.034;20.650;2023-06-14T13:00:48;10.80;;;3.67;;
28766;SDS011;15921;52.034;20.650;2023-06-14T13:03:14;8.43;;;3.85;;
28766;SDS011;15921;52.034;20.650;2023-06-14T13:05:40;5.20;;;3.38;;
28766;SDS011;15921;52.034;20.650;2023-06-14T13:08:07;5.25;;;3.25;;
28766;SDS011;15921;52.034;20.650;2023-06-14T13:10:34;11.90;;;4.13;;
28766;SDS011;15921;52.034;20.650;2023-06-14T13:12:59;9.52;;;3.97;;
28766;SDS011;15921;52.034;20.650;2023-06-14T13:15:25;6.60;;;3.40;;
28766;SDS011;15921;52.034;20.650;2023-06-14T13:17:52;5.55;;;3.33;;
28766;SDS011;15921;52.034;20.650;2023-06-14T13:20:18;8.77;;;3.40;;
28766;SDS011;15921;52.034;20.650;2023-06-14T13:22:43;11.82;;;3.38;;
28766;SDS011;15921;52.034;20.650;2023-06-14T13:25:09;7.78;;;2.92;;
28766;SDS011;15921;52.034;20.650;2023-06-14T13:27:35;7.78;;;2.45;;
28766;SDS011;15921;52.034;20.650;2023-06-14T13:30:01;6.18;;;2.70;;
28766;SDS011;15921;52.034;20.650;2023-06-14T13:32:27;7.47;;;2.63;;
28766;SDS011;15921;52.034;20.650;2023-06-14T13:34:53;7.28;;;2.95;;
28766;SDS011;15921;52.034;20.650;2023-06-14T13:37:19;3.65;;;2.53;;
28766;SDS011;15921;52.034;20.650;2023-06-14T13:39:44;5.47;;;2.45;;
28766;SDS011;15921;52.034;20.650;2023-06-14T13:42:10;5.53;;;2.35;;
28766;SDS011;15921;52.034;20.650;2023-06-14T13:44:36;10.00;;;3.95;;
28766;SDS011;15921;52.034;20.650;2023-06-14T13:47:02;8.05;;;3.03;;
28766;SDS011;15921;52.034;20.650;2023-06-14T13:49:28;6.03;;;3.00;;
28766;SDS011;15921;52.034;20.650;2023-06-14T13:51:53;8.40;;;2.22;;
28766;SDS011;15921;52.034;20.650;2023-06-14T13:54:20;4.70;;;2.55;;
28766;SDS011;15921;52.034;20.650;2023-06-14T13:56:46;7.20;;;2.78;;
28766;SDS011;15921;52.034;20.650;2023-06-14T13:59:12;7.57;;;2.63;;
28766;SDS011;15921;52.034;20.650;2023-06-14T14:01:38;3.55;;;2.10;;
28766;SDS011;15921;52.034;20.650;2023-06-14T14:04:04;10.35;;;3.00;;
28766;SDS011;15921;52.034;20.650;2023-06-14T14:06:30;8.38;;;2.55;;
28766;SDS011;15921;52.034;20.650;2023-06-14T14:08:56;6.95;;;2.85;;
28766;SDS011;15921;52.034;20.650;2023-06-14T14:11:22;4.60;;;2.40;;
28766;SDS011;15921;52.034;20.650;2023-06-14T14:13:48;5.85;;;2.42;;
28766;SDS011;15921;52.034;20.650;2023-06-14T14:16:14;6.15;;;2.60;;
28766;SDS011;15921;52.034;20.650;2023-06-14T14:18:40;8.70;;;2.85;;
28766;SDS011;15921;52.034;20.650;2023-06-14T14:21:05;4.65;;;2.90;;
28766;SDS011;15921;52.034;20.650;2023-06-14T14:23:31;6.85;;;3.08;;
28766;SDS011;15921;52.034;20.650;2023-06-14T14:25:57;5.60;;;2.50;;
28766;SDS011;15921;52.034;20.650;2023-06-14T14:28:23;5.78;;;2.72;;
28766;SDS011;15921;52.034;20.650;2023-06-14T14:30:48;3.67;;;2.20;;
28766;SDS011;15921;52.034;20.650;2023-06-14T14:33:14;5.35;;;2.53;;
28766;SDS011;15921;52.034;20.650;2023-06-14T14:35:42;8.05;;;2.53;;
28766;SDS011;15921;52.034;20.650;2023-06-14T14:38:10;5.70;;;2.30;;
28766;SDS011;15921;52.034;20.650;2023-06-14T14:43:09;6.25;;;2.53;;
28766;SDS011;15921;52.034;20.650;2023-06-14T14:45:35;7.93;;;2.70;;